^^
Datos históricos de la estación: Murcia-Puente Tocinos
Diario Informe para Marzo 23, 2019 Unidades:  Métrico    Inglés   Ambas
Diario Semanal Mensual Anual Configurable
  Máximo: Mínimo: Media:
Temperatura: 16.7 °C 11.7 °C 13.8 °C
Punto de rocio: 10.7 °C 5.0 °C 7.3 °C
Humedad: 86% 49% 66%
Velocidad viento: 13.7km/h 0.0km/h 5km/h
Racha viento: 20.9km/h - -
Viento- - SSE
Presión: 1025.0 hPa 1022.1 hPa -
Precipitación: 0.3 mm    
Historical Graphs
 
 
Tabla de datos para Marzo 23, 2019
Hora Temperatura Punto de rocio Presión Viento Velocidad viento Racha viento Humedad Intensidad lluvia(por hora) Nubes
00:00 14.9 °C 7.2 °C 1024.1 hPa SSW 3.2 km/h 6.4 km/h 60% 0.0 mm CLR
00:05 14.9 °C 7.2 °C 1024.2 hPa South 2.9 km/h 7.4 km/h 60% 0.0 mm CLR
00:10 14.9 °C 6.9 °C 1024.2 hPa South 5.0 km/h 9.3 km/h 59% 0.0 mm CLR
00:15 14.8 °C 6.8 °C 1024.2 hPa South 5.0 km/h 5.6 km/h 59% 0.0 mm CLR
00:20 14.7 °C 6.8 °C 1024.1 hPa South 4.7 km/h 5.6 km/h 59% 0.0 mm CLR
00:25 14.7 °C 7.0 °C 1024.1 hPa South 4.7 km/h 7.4 km/h 60% 0.0 mm CLR
00:30 14.7 °C 7.0 °C 1024.1 hPa South 4.7 km/h 5.8 km/h 60% 0.0 mm CLR
00:35 14.6 °C 6.9 °C 1023.9 hPa NE 4.7 km/h 7.4 km/h 60% 0.0 mm CLR
00:40 14.6 °C 7.4 °C 1023.9 hPa NE 3.9 km/h 3.7 km/h 62% 0.0 mm CLR
00:45 14.4 °C 7.2 °C 1023.9 hPa NE 3.9 km/h   62% 0.0 mm CLR
00:50 14.4 °C 6.9 °C 1023.8 hPa Calm   5.6 km/h 61% 0.0 mm CLR
00:55 14.4 °C 6.9 °C 1023.8 hPa Calm   7.4 km/h 61% 0.0 mm CLR
01:00 14.4 °C 6.7 °C 1023.8 hPa SSW 3.2 km/h 6.4 km/h 60% 0.0 mm CLR
01:05 14.4 °C 6.5 °C 1023.8 hPa SSW 3.2 km/h 7.4 km/h 59% 0.0 mm CLR
01:10 14.4 °C 6.5 °C 1023.8 hPa South 3.9 km/h 7.4 km/h 59% 0.0 mm CLR
01:15 14.4 °C 6.5 °C 1023.8 hPa SSW 3.9 km/h 7.4 km/h 59% 0.0 mm CLR
01:20 14.4 °C 6.5 °C 1023.7 hPa SSW 5.8 km/h 7.4 km/h 59% 0.0 mm CLR
01:25 14.3 °C 6.4 °C 1023.7 hPa SSW 5.8 km/h 5.6 km/h 59% 0.0 mm CLR
01:30 14.4 °C 6.5 °C 1023.7 hPa SSW 4.7 km/h 7.4 km/h 59% 0.0 mm CLR
01:35 14.3 °C 6.4 °C 1023.6 hPa SSW 4.7 km/h 7.4 km/h 59% 0.0 mm CLR
01:40 14.3 °C 6.2 °C 1023.6 hPa SSW 5.0 km/h 7.6 km/h 58% 0.0 mm CLR
01:45 14.3 °C 6.2 °C 1023.6 hPa SSW 5.0 km/h 7.4 km/h 58% 0.0 mm CLR
01:50 14.2 °C 6.1 °C 1023.7 hPa SW 5.8 km/h 10.3 km/h 58% 0.0 mm CLR
01:55 14.2 °C 6.1 °C 1023.7 hPa SSW 5.8 km/h 9.3 km/h 58% 0.0 mm CLR
02:00 14.1 °C 5.9 °C 1023.7 hPa SSW 8.0 km/h 9.7 km/h 58% 0.0 mm CLR
02:05 14.1 °C 5.9 °C 1023.7 hPa SSW 7.6 km/h 9.3 km/h 58% 0.0 mm CLR
02:10 14.1 °C 5.9 °C 1023.7 hPa SSW 6.4 km/h 7.4 km/h 58% 0.0 mm CLR
02:15 14.0 °C 5.8 °C 1023.7 hPa SSW 6.4 km/h 7.6 km/h 58% 0.0 mm CLR
02:20 13.9 °C 5.8 °C 1023.8 hPa SW 5.8 km/h 13.0 km/h 58% 0.0 mm CLR
02:25 13.9 °C 5.8 °C 1023.8 hPa SW 5.8 km/h 11.1 km/h 58% 0.0 mm CLR
02:30 13.9 °C 5.8 °C 1023.8 hPa SW 7.6 km/h 9.3 km/h 58% 0.0 mm CLR
02:35 13.9 °C 5.5 °C 1023.8 hPa SSW 7.6 km/h 11.1 km/h 57% 0.0 mm CLR
02:40 13.9 °C 5.5 °C 1023.8 hPa SW 6.9 km/h 9.3 km/h 57% 0.0 mm CLR
02:45 13.9 °C 5.5 °C 1023.8 hPa South 6.9 km/h 14.8 km/h 57% 0.0 mm CLR
02:50 13.9 °C 5.5 °C 1023.6 hPa SSW 6.9 km/h 7.4 km/h 57% 0.0 mm CLR
02:55 13.9 °C 5.5 °C 1023.6 hPa WSW 6.9 km/h 10.0 km/h 57% 0.0 mm CLR
03:00 13.9 °C 5.3 °C 1023.6 hPa SW 4.8 km/h 11.3 km/h 56% 0.0 mm CLR
03:05 13.9 °C 5.3 °C 1023.5 hPa WSW 5.8 km/h 10.0 km/h 56% 0.0 mm CLR
03:10 13.9 °C 5.3 °C 1023.5 hPa SW 6.4 km/h 8.4 km/h 56% 0.0 mm CLR
03:15 13.9 °C 5.3 °C 1023.5 hPa SSW 6.4 km/h 9.3 km/h 56% 0.0 mm CLR
03:20 13.9 °C 5.3 °C 1023.6 hPa SSW 5.0 km/h 7.4 km/h 56% 0.0 mm CLR
03:25 13.9 °C 5.3 °C 1023.6 hPa SSW 5.0 km/h 7.4 km/h 56% 0.0 mm CLR
03:30 13.9 °C 5.3 °C 1023.6 hPa SSW 4.7 km/h 7.4 km/h 56% 0.0 mm CLR
03:35 13.9 °C 5.3 °C 1023.5 hPa SSW 4.7 km/h 9.3 km/h 56% 0.0 mm CLR
03:40 13.8 °C 5.2 °C 1023.5 hPa SW 5.0 km/h 7.4 km/h 56% 0.0 mm CLR
03:45 13.8 °C 5.2 °C 1023.5 hPa SW 5.0 km/h 5.6 km/h 56% 0.0 mm CLR
03:50 13.8 °C 5.2 °C 1023.4 hPa SW 3.9 km/h 5.6 km/h 56% 0.0 mm CLR
03:55 13.8 °C 5.2 °C 1023.4 hPa SW 3.9 km/h 7.4 km/h 56% 0.0 mm CLR
04:00 13.8 °C 5.2 °C 1023.4 hPa SW 3.2 km/h 4.8 km/h 56% 0.0 mm CLR
04:05 13.8 °C 5.2 °C 1023.4 hPa SW 3.9 km/h 3.7 km/h 56% 0.0 mm CLR
04:10 13.8 °C 5.4 °C 1023.4 hPa SW 2.9 km/h 3.9 km/h 57% 0.0 mm CLR
04:15 13.7 °C 5.3 °C 1023.4 hPa South 2.9 km/h 7.4 km/h 57% 0.0 mm CLR
04:20 13.7 °C 5.3 °C 1023.5 hPa South 4.7 km/h 5.8 km/h 57% 0.0 mm CLR
04:25 13.6 °C 5.2 °C 1023.5 hPa SSW 4.7 km/h 5.6 km/h 57% 0.0 mm CLR
04:30 13.6 °C 5.2 °C 1023.5 hPa South 4.7 km/h 7.4 km/h 57% 0.0 mm CLR
04:35 13.6 °C 5.2 °C 1023.6 hPa SSW 4.7 km/h 7.4 km/h 57% 0.0 mm CLR
04:40 13.6 °C 5.2 °C 1023.6 hPa SSW 4.7 km/h 5.6 km/h 57% 0.0 mm CLR
04:45 13.6 °C 5.5 °C 1023.6 hPa SSW 4.7 km/h 5.6 km/h 58% 0.0 mm CLR
04:50 13.6 °C 5.5 °C 1023.6 hPa SSW 3.2 km/h 3.7 km/h 58% 0.0 mm CLR
04:55 13.6 °C 5.7 °C 1023.6 hPa SSW 3.2 km/h   59% 0.0 mm CLR
05:00 13.5 °C 5.4 °C 1023.6 hPa SSW 1.6 km/h 6.4 km/h 58% 0.0 mm CLR
05:05 13.4 °C 6.0 °C 1023.6 hPa SE 2.3 km/h 5.6 km/h 61% 0.0 mm CLR
05:10 13.1 °C 6.0 °C 1023.6 hPa SE 3.9 km/h 5.6 km/h 62% 0.0 mm CLR
05:15 12.8 °C 5.9 °C 1023.6 hPa ESE 3.9 km/h 7.6 km/h 63% 0.0 mm CLR
05:20 12.6 °C 5.9 °C 1023.6 hPa ESE 4.7 km/h 3.9 km/h 64% 0.0 mm CLR
05:25 12.5 °C 6.1 °C 1023.6 hPa ESE 4.7 km/h 3.7 km/h 65% 0.0 mm CLR
05:30 12.4 °C 6.0 °C 1023.6 hPa ESE 2.3 km/h 3.7 km/h 65% 0.0 mm CLR
05:35 12.4 °C 6.0 °C 1023.7 hPa ESE 2.3 km/h 3.7 km/h 65% 0.0 mm CLR
05:40 12.4 °C 6.0 °C 1023.7 hPa ESE 2.3 km/h 4.7 km/h 65% 0.0 mm CLR
05:45 12.4 °C 6.0 °C 1023.7 hPa ESE 2.3 km/h 3.7 km/h 65% 0.0 mm CLR
05:50 12.4 °C 5.8 °C 1023.6 hPa ESE 3.2 km/h 5.6 km/h 64% 0.0 mm CLR
05:55 12.4 °C 6.0 °C 1023.6 hPa ESE 3.2 km/h 3.9 km/h 65% 0.0 mm CLR
06:00 12.4 °C 6.0 °C 1023.6 hPa ESE 3.2 km/h 6.4 km/h 65% 0.0 mm CLR
06:05 12.5 °C 6.1 °C 1023.7 hPa ESE 2.9 km/h 3.9 km/h 65% 0.0 mm CLR
06:10 12.4 °C 6.0 °C 1023.7 hPa ESE 3.2 km/h 3.7 km/h 65% 0.0 mm CLR
06:15 12.4 °C 6.0 °C 1023.7 hPa ESE 3.2 km/h 3.7 km/h 65% 0.0 mm CLR
06:20 12.5 °C 6.1 °C 1023.8 hPa ESE 2.3 km/h 1.9 km/h 65% 0.0 mm CLR
06:25 12.5 °C 6.1 °C 1023.8 hPa ESE 2.3 km/h 5.8 km/h 65% 0.0 mm CLR
06:30 12.5 °C 6.3 °C 1023.8 hPa ESE 2.9 km/h 3.7 km/h 66% 0.0 mm CLR
06:35 12.4 °C 6.4 °C 1023.9 hPa ESE 2.9 km/h   67% 0.0 mm CLR
06:40 12.4 °C 6.4 °C 1023.9 hPa ESE 2.3 km/h   67% 0.0 mm CLR
06:45 12.3 °C 6.6 °C 1023.9 hPa East 2.3 km/h 7.4 km/h 68% 0.0 mm CLR
06:50 12.3 °C 6.8 °C 1024.0 hPa East 2.3 km/h 3.7 km/h 69% 0.0 mm CLR
06:55 12.1 °C 6.4 °C 1024.0 hPa East 2.3 km/h 3.7 km/h 68% 0.0 mm CLR
07:00 12.0 °C 6.3 °C 1024.0 hPa East 1.6 km/h 4.8 km/h 68% 0.0 mm CLR
07:05 11.9 °C 6.4 °C 1024.1 hPa East 2.3 km/h 5.6 km/h 69% 0.0 mm CLR
07:10 11.9 °C 6.4 °C 1024.1 hPa East 3.2 km/h 5.6 km/h 69% 0.0 mm CLR
07:15 11.9 °C 6.6 °C 1024.1 hPa East 3.2 km/h   70% 0.0 mm CLR
07:20 11.9 °C 6.8 °C 1024.2 hPa East 2.3 km/h   71% 0.3 mm RA
07:25 11.9 °C 6.4 °C 1024.2 hPa East 2.3 km/h 7.4 km/h 69% 0.3 mm RA
07:30 11.8 °C 6.5 °C 1024.2 hPa Calm   2.3 km/h 70% 0.3 mm CLR
07:35 11.8 °C 6.5 °C 1024.2 hPa Calm     70% 0.3 mm
07:40 11.8 °C 6.9 °C 1024.2 hPa Calm     72% 0.3 mm CLR
07:45 11.8 °C 7.5 °C 1024.2 hPa Calm   7.4 km/h 75% 0.3 mm CLR
07:50 11.8 °C 7.7 °C 1024.3 hPa NNW 2.3 km/h   76% 0.3 mm CLR
07:55 11.7 °C 7.6 °C 1024.3 hPa NNW 2.3 km/h   76% 0.3 mm CLR
08:00 11.7 °C 7.8 °C 1024.3 hPa Calm   4.8 km/h 77% 0.0 mm
08:05 11.7 °C 7.8 °C 1024.4 hPa Calm     77% 0.3 mm CLR
08:10 11.7 °C 7.6 °C 1024.4 hPa NE 2.3 km/h   76% 0.3 mm CLR
08:15 11.7 °C 7.6 °C 1024.4 hPa NE 2.3 km/h 1.9 km/h 76% 0.3 mm CLR
08:20 11.7 °C 7.6 °C 1024.5 hPa Calm     76% 0.3 mm CLR
08:25 11.8 °C 7.5 °C 1024.5 hPa Calm   4.7 km/h 75% 0.0 mm CLR
08:30 11.9 °C 7.2 °C 1024.5 hPa Calm   3.7 km/h 73% 0.0 mm CLR
08:35 11.9 °C 7.0 °C 1024.3 hPa Calm   5.6 km/h 72% 0.0 mm CLR
08:40 12.1 °C 7.2 °C 1024.3 hPa NE 2.9 km/h 3.9 km/h 72% 0.0 mm CLR
08:45 12.2 °C 8.1 °C 1024.3 hPa ENE 2.9 km/h 7.4 km/h 76% 0.0 mm CLR
08:50 12.3 °C 8.2 °C 1024.5 hPa ENE 3.2 km/h 3.7 km/h 76% 0.0 mm CLR
08:55 12.3 °C 8.0 °C 1024.5 hPa SSE 3.2 km/h 9.3 km/h 75% 0.0 mm CLR
09:00 12.3 °C 8.0 °C 1024.5 hPa SE 3.2 km/h 9.7 km/h 75% 0.0 mm CLR
09:05 12.4 °C 8.3 °C 1024.5 hPa SSE 4.7 km/h 7.4 km/h 76% 0.0 mm CLR
09:10 12.4 °C 8.3 °C 1024.5 hPa SE 4.7 km/h 7.6 km/h 76% 0.0 mm CLR
09:15 12.4 °C 8.1 °C 1024.5 hPa SSE 4.7 km/h 11.1 km/h 75% 0.0 mm CLR
09:20 12.3 °C 7.6 °C 1024.6 hPa SSE 6.9 km/h 11.1 km/h 73% 0.0 mm CLR
09:25 12.3 °C 7.6 °C 1024.6 hPa SSE 6.9 km/h 13.0 km/h 73% 0.0 mm CLR
09:30 12.4 °C 7.3 °C 1024.6 hPa SSE 8.4 km/h 11.1 km/h 71% 0.0 mm CLR
09:35 12.5 °C 7.2 °C 1024.8 hPa SSE 8.4 km/h 10.0 km/h 70% 0.0 mm CLR
09:40 12.6 °C 7.3 °C 1024.8 hPa SSE 7.6 km/h 5.8 km/h 70% 0.0 mm CLR
09:45 12.6 °C 7.1 °C 1024.8 hPa SSE 7.6 km/h 9.3 km/h 69% 0.0 mm CLR
09:50 12.7 °C 7.4 °C 1024.9 hPa South 5.8 km/h 7.4 km/h 70% 0.0 mm CLR
09:55 12.7 °C 7.2 °C 1024.9 hPa South 5.8 km/h 7.6 km/h 69% 0.0 mm CLR
10:00 12.8 °C 7.3 °C 1024.9 hPa South 4.8 km/h 9.7 km/h 69% 0.0 mm CLR
10:05 12.8 °C 7.3 °C 1025.0 hPa South 5.8 km/h 7.4 km/h 69% 0.0 mm CLR
10:10 12.9 °C 7.3 °C 1025.0 hPa South 5.0 km/h 5.6 km/h 69% 0.0 mm CLR
10:15 12.9 °C 7.3 °C 1025.0 hPa South 5.0 km/h 7.4 km/h 69% 0.0 mm CLR
10:20 12.9 °C 7.6 °C 1025.0 hPa South 3.9 km/h 5.6 km/h 70% 0.0 mm CLR
10:25 12.9 °C 7.8 °C 1025.0 hPa SSE 3.9 km/h 7.4 km/h 71% 0.0 mm CLR
10:30 12.8 °C 7.3 °C 1025.0 hPa South 5.0 km/h 7.6 km/h 69% 0.0 mm CLR
10:35 12.8 °C 7.3 °C 1025.0 hPa South 5.0 km/h 8.4 km/h 69% 0.0 mm CLR
10:40 12.8 °C 7.9 °C 1025.0 hPa South 6.4 km/h 13.0 km/h 72% 0.0 mm CLR
10:45 12.7 °C 7.8 °C 1025.0 hPa SSW 6.4 km/h 11.1 km/h 72% 0.0 mm CLR
10:50 12.7 °C 7.8 °C 1025.0 hPa SSW 8.4 km/h 11.1 km/h 72% 0.0 mm CLR
10:55 12.6 °C 7.7 °C 1025.0 hPa SSW 8.4 km/h 13.0 km/h 72% 0.0 mm CLR
11:00 12.6 °C 7.7 °C 1025.0 hPa SSE 8.0 km/h 14.5 km/h 72% 0.0 mm CLR
11:05 12.5 °C 7.6 °C 1025.0 hPa SSE 8.4 km/h 11.1 km/h 72% 0.0 mm CLR
11:10 12.5 °C 7.6 °C 1025.0 hPa South 9.5 km/h 13.0 km/h 72% 0.0 mm CLR
11:15 12.5 °C 7.4 °C 1025.0 hPa SSW 9.5 km/h 11.1 km/h 71% 0.0 mm CLR
11:20 12.6 °C 7.3 °C 1024.9 hPa South 9.5 km/h 9.5 km/h 70% 0.0 mm CLR
11:25 12.7 °C 6.9 °C 1024.9 hPa SW 9.5 km/h 11.1 km/h 68% 0.0 mm CLR
11:30 12.9 °C 6.9 °C 1024.9 hPa SW 6.9 km/h 11.1 km/h 67% 0.0 mm CLR
11:35 13.0 °C 6.8 °C 1024.8 hPa SW 6.9 km/h 11.1 km/h 66% 0.0 mm CLR
11:40 13.2 °C 7.0 °C 1024.8 hPa SW 7.6 km/h 7.4 km/h 66% 0.0 mm CLR
11:45 13.2 °C 6.8 °C 1024.8 hPa SSW 7.6 km/h 14.8 km/h 65% 0.0 mm CLR
11:50 13.3 °C 6.8 °C 1024.7 hPa South 8.7 km/h 13.0 km/h 65% 0.0 mm CLR
11:55 13.3 °C 6.8 °C 1024.7 hPa SSW 8.7 km/h 11.1 km/h 65% 0.0 mm CLR
12:00 13.3 °C 6.8 °C 1024.7 hPa SSW 11.3 km/h 14.5 km/h 65% 0.0 mm CLR
12:05 13.3 °C 6.8 °C 1024.7 hPa SSW 10.3 km/h 11.1 km/h 65% 0.0 mm CLR
12:10 13.4 °C 6.7 °C 1024.7 hPa South 8.4 km/h 14.8 km/h 64% 0.0 mm CLR
12:15 13.3 °C 6.6 °C 1024.7 hPa SSW 8.4 km/h 10.3 km/h 64% 0.0 mm CLR
12:20 13.4 °C 6.9 °C 1024.7 hPa SSE 8.4 km/h 13.0 km/h 65% 0.0 mm CLR
12:25 13.4 °C 6.9 °C 1024.7 hPa SSE 8.4 km/h 7.4 km/h 65% 0.0 mm CLR
12:30 13.5 °C 7.1 °C 1024.7 hPa South 5.0 km/h 7.4 km/h 65% 0.0 mm CLR
12:35 13.5 °C 6.8 °C 1024.6 hPa SSW 5.0 km/h 13.0 km/h 64% 0.0 mm CLR
12:40 13.5 °C 6.8 °C 1024.6 hPa SW 7.6 km/h 7.4 km/h 64% 0.0 mm CLR
12:45 13.6 °C 6.7 °C 1024.6 hPa SE 7.6 km/h 7.4 km/h 63% 0.0 mm CLR
12:50 13.7 °C 6.8 °C 1024.6 hPa SSW 4.7 km/h 9.3 km/h 63% 0.0 mm CLR
12:55 13.7 °C 6.8 °C 1024.6 hPa WSW 4.7 km/h 13.0 km/h 63% 0.0 mm CLR
13:00 13.8 °C 6.8 °C 1024.6 hPa SSW 8.0 km/h 14.5 km/h 63% 0.0 mm CLR
13:05 13.8 °C 6.9 °C 1024.5 hPa South 7.6 km/h 9.3 km/h 63% 0.0 mm CLR
13:10 13.9 °C 6.7 °C 1024.5 hPa SSW 5.8 km/h 7.4 km/h 62% 0.0 mm CLR
13:15 13.9 °C 6.7 °C 1024.5 hPa SW 5.8 km/h 9.3 km/h 62% 0.0 mm CLR
13:20 13.9 °C 6.7 °C 1024.4 hPa SSW 6.4 km/h 11.1 km/h 62% 0.0 mm CLR
13:25 13.9 °C 6.7 °C 1024.4 hPa South 6.4 km/h 9.3 km/h 62% 0.0 mm CLR
13:30 13.9 °C 6.7 °C 1024.4 hPa SSW 8.4 km/h 11.1 km/h 62% 0.0 mm CLR
13:35 14.0 °C 6.8 °C 1024.2 hPa SW 8.4 km/h 11.1 km/h 62% 0.0 mm CLR
13:40 14.1 °C 6.9 °C 1024.2 hPa SSW 7.6 km/h 13.0 km/h 62% 0.0 mm CLR
13:45 14.1 °C 6.7 °C 1024.2 hPa SW 7.6 km/h 11.1 km/h 61% 0.0 mm CLR
13:50 14.2 °C 6.6 °C 1024.0 hPa SSW 8.4 km/h 11.1 km/h 60% 0.0 mm CLR
13:55 14.3 °C 6.6 °C 1024.0 hPa SSW 8.4 km/h 7.4 km/h 60% 0.0 mm CLR
14:00 14.4 °C 6.5 °C 1024.0 hPa SSW 8.0 km/h 9.7 km/h 59% 0.0 mm CLR
14:05 14.6 °C 6.7 °C 1023.9 hPa WSW 6.4 km/h 5.6 km/h 59% 0.0 mm CLR
14:10 14.6 °C 6.2 °C 1023.9 hPa SSW 5.8 km/h 11.1 km/h 57% 0.0 mm CLR
14:15 14.6 °C 6.2 °C 1023.9 hPa SSW 5.8 km/h 11.1 km/h 57% 0.0 mm CLR
14:20 14.7 °C 6.3 °C 1023.7 hPa SSW 6.4 km/h 13.0 km/h 57% 0.0 mm CLR
14:25 14.7 °C 6.3 °C 1023.7 hPa SSW 6.4 km/h 9.3 km/h 57% 0.0 mm CLR
14:30 14.8 °C 6.1 °C 1023.7 hPa WSW 6.9 km/h 10.3 km/h 56% 0.0 mm CLR
14:35 14.9 °C 6.2 °C 1023.5 hPa WSW 6.9 km/h 7.4 km/h 56% 0.0 mm CLR
14:40 15.1 °C 5.8 °C 1023.5 hPa WSW 6.4 km/h 7.4 km/h 54% 0.0 mm CLR
14:45 15.2 °C 6.2 °C 1023.5 hPa WSW 6.4 km/h 7.4 km/h 55% 0.0 mm CLR
14:50 15.3 °C 6.1 °C 1023.4 hPa SW 4.7 km/h 5.8 km/h 54% 0.0 mm CLR
14:55 15.4 °C 6.1 °C 1023.4 hPa WSW 4.7 km/h 3.7 km/h 54% 0.0 mm CLR
15:00 15.4 °C 5.6 °C 1023.4 hPa WSW 3.2 km/h 6.4 km/h 52% 0.0 mm CLR
15:05 15.6 °C 5.8 °C 1023.2 hPa SW 3.2 km/h 7.4 km/h 52% 0.0 mm CLR
15:10 15.6 °C 5.2 °C 1023.2 hPa SSE 3.9 km/h 7.4 km/h 50% 0.0 mm CLR
15:15 15.7 °C 5.6 °C 1023.2 hPa SSE 3.9 km/h 7.4 km/h 51% 0.0 mm CLR
15:20 15.7 °C 5.6 °C 1023.2 hPa South 3.9 km/h 7.4 km/h 51% 0.0 mm CLR
15:25 15.7 °C 5.6 °C 1023.2 hPa SE 3.9 km/h 9.3 km/h 51% 0.0 mm CLR
15:30 15.7 °C 5.6 °C 1023.2 hPa SSW 5.0 km/h 7.4 km/h 51% 0.0 mm CLR
15:35 15.7 °C 5.6 °C 1023.1 hPa SSE 5.0 km/h 9.3 km/h 51% 0.0 mm CLR
15:40 15.7 °C 5.6 °C 1023.1 hPa SSE 6.4 km/h 9.3 km/h 51% 0.0 mm CLR
15:45 15.7 °C 5.6 °C 1023.1 hPa South 6.4 km/h 5.6 km/h 51% 0.0 mm CLR
15:50 15.7 °C 5.3 °C 1023.0 hPa SE 5.8 km/h 9.3 km/h 50% 0.0 mm CLR
15:55 15.7 °C 5.0 °C 1023.0 hPa SSE 5.8 km/h 11.1 km/h 49% 0.0 mm CLR
16:00 15.7 °C 5.3 °C 1023.0 hPa SSE 8.0 km/h 11.3 km/h 50% 0.0 mm CLR
16:05 15.8 °C 5.4 °C 1022.8 hPa ESE 7.6 km/h 9.3 km/h 50% 0.0 mm CLR
16:10 15.8 °C 5.4 °C 1022.8 hPa South 7.6 km/h 7.4 km/h 50% 0.0 mm CLR
16:15 16.0 °C 5.6 °C 1022.8 hPa SSE 7.6 km/h 7.6 km/h 50% 0.0 mm CLR
16:20 16.0 °C 5.6 °C 1022.7 hPa SSE 6.4 km/h 9.3 km/h 50% 0.0 mm CLR
16:25 16.1 °C 5.7 °C 1022.7 hPa SE 6.4 km/h 5.8 km/h 50% 0.0 mm CLR
16:30 16.1 °C 5.7 °C 1022.7 hPa SE 4.7 km/h 7.4 km/h 50% 0.0 mm CLR
16:35 16.2 °C 5.8 °C 1022.7 hPa SSE 4.7 km/h 7.4 km/h 50% 0.0 mm CLR
16:40 16.1 °C 5.7 °C 1022.7 hPa SSE 5.8 km/h 7.4 km/h 50% 0.0 mm CLR
16:45 16.2 °C 5.8 °C 1022.7 hPa ESE 5.8 km/h 7.4 km/h 50% 0.0 mm CLR
16:50 16.2 °C 6.1 °C 1022.6 hPa East 4.7 km/h 5.6 km/h 51% 0.0 mm CLR
16:55 16.3 °C 6.1 °C 1022.6 hPa East 4.7 km/h 3.9 km/h 51% 0.0 mm CLR
17:00 16.3 °C 6.1 °C 1022.6 hPa East 3.2 km/h 4.8 km/h 51% 0.0 mm CLR
17:05 16.4 °C 6.2 °C 1022.4 hPa NE 2.9 km/h 6.9 km/h 51% 0.0 mm CLR
17:10 16.5 °C 6.3 °C 1022.4 hPa NE 2.9 km/h 5.6 km/h 51% 0.0 mm CLR
17:15 16.4 °C 6.2 °C 1022.4 hPa NE 2.9 km/h 5.6 km/h 51% 0.0 mm CLR
17:20 16.5 °C 6.3 °C 1022.2 hPa NE 3.9 km/h 7.4 km/h 51% 0.0 mm CLR
17:25 16.4 °C 6.2 °C 1022.2 hPa NE 3.9 km/h 3.7 km/h 51% 0.0 mm CLR
17:30 16.6 °C 6.4 °C 1022.2 hPa NE 2.9 km/h 1.9 km/h 51% 0.0 mm CLR
17:35 16.6 °C 6.4 °C 1022.1 hPa NE 2.9 km/h 3.7 km/h 51% 0.0 mm CLR
17:40 16.7 °C 6.5 °C 1022.1 hPa Calm   7.4 km/h 51% 0.0 mm CLR
17:45 16.6 °C 6.4 °C 1022.1 hPa Calm   5.6 km/h 51% 0.0 mm CLR
17:50 16.5 °C 6.6 °C 1022.1 hPa North 3.9 km/h 7.4 km/h 52% 0.0 mm CLR
17:55 16.4 °C 6.5 °C 1022.1 hPa NNW 3.9 km/h 5.6 km/h 52% 0.0 mm CLR
18:00 16.4 °C 6.5 °C 1022.1 hPa North 3.2 km/h 8.0 km/h 52% 0.0 mm CLR
18:05 16.4 °C 6.5 °C 1022.2 hPa NE 3.9 km/h 7.4 km/h 52% 0.0 mm CLR
18:10 16.4 °C 6.8 °C 1022.2 hPa NE 4.7 km/h 3.7 km/h 53% 0.0 mm CLR
18:15 16.4 °C 6.8 °C 1022.2 hPa NE 4.7 km/h 5.6 km/h 53% 0.0 mm CLR
18:20 16.4 °C 6.8 °C 1022.3 hPa ENE 3.2 km/h 11.1 km/h 53% 0.0 mm CLR
18:25 16.3 °C 6.7 °C 1022.3 hPa NE 3.2 km/h 3.7 km/h 53% 0.0 mm CLR
18:30 16.3 °C 7.2 °C 1022.3 hPa NE 5.8 km/h 13.0 km/h 55% 0.0 mm CLR
18:35 16.2 °C 8.4 °C 1022.4 hPa ENE 5.8 km/h 14.8 km/h 60% 0.0 mm CLR
18:40 16.1 °C 8.8 °C 1022.4 hPa ENE 10.3 km/h 17.2 km/h 62% 0.0 mm CLR
18:45 15.9 °C 8.6 °C 1022.4 hPa NE 10.3 km/h 18.5 km/h 62% 0.0 mm CLR
18:50 15.8 °C 9.0 °C 1022.5 hPa NNE 12.2 km/h 16.7 km/h 64% 0.0 mm CLR
18:55 15.6 °C 9.1 °C 1022.5 hPa NNE 12.2 km/h 20.4 km/h 65% 0.0 mm CLR
19:00 15.4 °C 9.1 °C 1022.5 hPa NE 12.9 km/h 20.9 km/h 66% 0.0 mm CLR
19:05 15.3 °C 9.4 °C 1022.6 hPa NE 13.7 km/h 18.5 km/h 68% 0.0 mm CLR
19:10 15.2 °C 9.6 °C 1022.6 hPa NE 12.2 km/h 14.8 km/h 69% 0.0 mm CLR
19:15 15.1 °C 9.7 °C 1022.6 hPa NNE 12.2 km/h 13.0 km/h 70% 0.0 mm CLR
19:20 14.9 °C 9.7 °C 1022.6 hPa NNE 9.5 km/h 14.8 km/h 71% 0.0 mm CLR
19:25 14.8 °C 9.8 °C 1022.6 hPa North 9.5 km/h 10.3 km/h 72% 0.0 mm CLR
19:30 14.7 °C 9.9 °C 1022.6 hPa NE 8.4 km/h 11.1 km/h 73% 0.0 mm CLR
19:35 14.6 °C 10.0 °C 1022.6 hPa NNE 8.4 km/h 9.3 km/h 74% 0.0 mm CLR
19:40 14.4 °C 10.0 °C 1022.6 hPa NE 7.6 km/h 14.8 km/h 75% 0.0 mm CLR
19:45 14.3 °C 10.1 °C 1022.6 hPa NNE 7.6 km/h 8.7 km/h 76% 0.0 mm CLR
19:50 14.2 °C 10.0 °C 1022.7 hPa North 8.4 km/h 13.0 km/h 76% 0.0 mm CLR
19:55 14.1 °C 10.1 °C 1022.7 hPa NE 8.4 km/h 13.0 km/h 77% 0.0 mm CLR
20:00 14.0 °C 10.2 °C 1022.7 hPa NE 8.0 km/h 14.5 km/h 78% 0.0 mm CLR
20:05 13.9 °C 10.1 °C 1022.9 hPa NE 8.4 km/h 9.3 km/h 78% 0.0 mm CLR
20:10 13.8 °C 10.2 °C 1022.9 hPa NE 6.9 km/h 7.4 km/h 79% 0.0 mm CLR
20:15 13.7 °C 10.1 °C 1022.9 hPa NE 6.9 km/h 7.4 km/h 79% 0.0 mm CLR
20:20 13.7 °C 10.3 °C 1023.1 hPa NE 5.0 km/h 5.8 km/h 80% 0.0 mm CLR
20:25 13.6 °C 10.2 °C 1023.1 hPa NE 5.0 km/h 7.4 km/h 80% 0.0 mm CLR
20:30 13.5 °C 10.1 °C 1023.1 hPa NE 4.7 km/h 7.4 km/h 80% 0.0 mm CLR
20:35 13.4 °C 10.2 °C 1023.2 hPa NE 4.7 km/h 7.4 km/h 81% 0.0 mm CLR
20:40 13.4 °C 10.2 °C 1023.2 hPa NE 5.8 km/h 9.3 km/h 81% 0.0 mm CLR
20:45 13.4 °C 10.2 °C 1023.2 hPa NE 5.8 km/h 11.1 km/h 81% 0.0 mm CLR
20:50 13.3 °C 10.3 °C 1023.2 hPa NNE 7.6 km/h 11.1 km/h 82% 0.0 mm CLR
20:55 13.3 °C 10.3 °C 1023.2 hPa NE 7.6 km/h 11.1 km/h 82% 0.0 mm CLR
21:00 13.3 °C 10.3 °C 1023.2 hPa NE 8.0 km/h 12.9 km/h 82% 0.0 mm CLR
21:05 13.2 °C 10.2 °C 1023.4 hPa NE 7.6 km/h 9.3 km/h 82% 0.0 mm CLR
21:10 13.2 °C 10.4 °C 1023.4 hPa NE 6.9 km/h 9.3 km/h 83% 0.0 mm CLR
21:15 13.2 °C 10.4 °C 1023.4 hPa NE 6.9 km/h 7.4 km/h 83% 0.0 mm CLR
21:20 13.2 °C 10.4 °C 1023.4 hPa NE 5.0 km/h 5.6 km/h 83% 0.0 mm CLR
21:25 13.2 °C 10.4 °C 1023.4 hPa NE 5.0 km/h 7.4 km/h 83% 0.0 mm CLR
21:30 13.2 °C 10.6 °C 1023.4 hPa NE 3.9 km/h 5.6 km/h 84% 0.0 mm CLR
21:35 13.1 °C 10.4 °C 1023.5 hPa NE 3.9 km/h 3.7 km/h 84% 0.0 mm CLR
21:40 13.2 °C 10.6 °C 1023.5 hPa NE 2.9 km/h 3.7 km/h 84% 0.0 mm CLR
21:45 13.1 °C 10.4 °C 1023.5 hPa NE 2.9 km/h   84% 0.0 mm CLR
21:50 13.1 °C 10.4 °C 1023.5 hPa Calm   2.9 km/h 84% 0.0 mm CLR
21:55 13.1 °C 10.4 °C 1023.5 hPa Calm   5.6 km/h 84% 0.0 mm CLR
22:00 13.1 °C 10.4 °C 1023.5 hPa NNE 3.2 km/h 8.0 km/h 84% 0.0 mm CLR
22:05 13.1 °C 10.4 °C 1023.4 hPa WSW 2.9 km/h 5.6 km/h 84% 0.0 mm CLR
22:10 13.1 °C 10.4 °C 1023.4 hPa WSW 3.9 km/h 5.8 km/h 84% 0.0 mm CLR
22:15 13.1 °C 10.4 °C 1023.4 hPa WSW 3.9 km/h 3.7 km/h 84% 0.0 mm CLR
22:20 13.1 °C 10.6 °C 1023.4 hPa WSW 3.2 km/h 3.7 km/h 85% 0.0 mm CLR
22:25 13.1 °C 10.6 °C 1023.4 hPa WSW 3.2 km/h   85% 0.0 mm CLR
22:30 13.1 °C 10.6 °C 1023.4 hPa Calm   3.9 km/h 85% 0.0 mm CLR
22:35 13.1 °C 10.6 °C 1023.4 hPa Calm   7.4 km/h 85% 0.0 mm CLR
22:40 13.2 °C 10.7 °C 1023.4 hPa WNW 2.9 km/h 5.6 km/h 85% 0.0 mm CLR
22:45 13.2 °C 10.7 °C 1023.4 hPa WNW 2.9 km/h 1.9 km/h 85% 0.0 mm CLR
22:50 13.2 °C 10.7 °C 1023.3 hPa WNW 2.9 km/h 5.6 km/h 85% 0.0 mm CLR
22:55 13.2 °C 10.7 °C 1023.3 hPa WNW 2.9 km/h 7.4 km/h 85% 0.0 mm CLR
23:00 13.2 °C 10.7 °C 1023.3 hPa WNW 3.2 km/h 6.4 km/h 85% 0.0 mm CLR
23:05 13.2 °C 10.7 °C 1023.4 hPa WNW 3.9 km/h 5.6 km/h 85% 0.0 mm CLR
23:10 13.2 °C 10.7 °C 1023.4 hPa WNW 2.9 km/h 3.7 km/h 85% 0.0 mm CLR
23:15 13.1 °C 10.6 °C 1023.4 hPa WNW 2.9 km/h   85% 0.0 mm CLR
23:20 13.1 °C 10.6 °C 1023.2 hPa Calm     85% 0.0 mm CLR
23:25 13.1 °C 10.6 °C 1023.2 hPa Calm   5.6 km/h 85% 0.0 mm CLR
23:30 12.9 °C 10.4 °C 1023.2 hPa WNW 2.3 km/h   85% 0.0 mm CLR
23:35 12.8 °C 10.3 °C 1023.1 hPa WNW 2.3 km/h 2.3 km/h 85% 0.0 mm CLR
23:40 12.7 °C 10.2 °C 1023.1 hPa WNW 2.3 km/h 3.9 km/h 85% 0.0 mm CLR
23:45 12.5 °C 10.1 °C 1023.1 hPa WNW 2.3 km/h 5.6 km/h 85% 0.0 mm CLR
23:50 12.4 °C 9.9 °C 1023.0 hPa WNW 2.9 km/h 3.7 km/h 85% 0.0 mm CLR
23:55 12.3 °C 10.0 °C 1023.0 hPa WNW 2.9 km/h 6.9 km/h 86% 0.0 mm CLR
Murcia-Puente Tocinos, España
Compliments of Weather Underground - 2.75 mb

La estación de MeteoMurcia.com, publica sus datos en los siguientes proyectos:

Weather Underground PWS IMURCIAP2 Meteoclimatic www.awekas.at

W3Counter
Web Analytics